Reading, Illinois
Current Conditions -  °F | °C
As of 7:35 AM on Friday 19 Dec 2014 (Local Time) from KPNT Reporting Station
Haze Haze  
Wind Chill: 17°   Ceiling: Unl
Heat Index: 17°   Visibility: 5mi
Dew Point: 15°   Wind: 3mph
Humidity: 92%   Direction: 280°W
Pressure: 30.31"   Gusts: NA
Location:  41.0465°N, 88.8725°W
Report Text: KPNT 191335Z AUTO 28003KT 5SM BR CLR M08/M10 A3031 RMK AO2 T10851096
Loading
Personal Weather Stations






























Interactive Weather Map New forecast layout! Learn more

10-Day Weather Forecast

Advertisements
Track Severe Weather on mobile